sensor_id;sensor_type;location;lat;lon;timestamp;pressure;altitude;pressure_sealevel;temperature;humidity
78573;BME280;67862;0.000;0.000;2023-05-07T00:02:04;99145.41;;;21.77;56.89
78573;BME280;67862;0.000;0.000;2023-05-07T00:04:29;99139.94;;;21.77;56.91
78573;BME280;67862;0.000;0.000;2023-05-07T00:07:03;99139.13;;;21.77;56.79
78573;BME280;67862;0.000;0.000;2023-05-07T00:09:29;99145.41;;;21.77;56.82
78573;BME280;67862;0.000;0.000;2023-05-07T00:11:54;99138.31;;;21.76;56.53
78573;BME280;67862;0.000;0.000;2023-05-07T00:14:19;99134.47;;;21.77;57.37
78573;BME280;67862;0.000;0.000;2023-05-07T00:16:45;99137.22;;;21.77;57.11
78573;BME280;67862;0.000;0.000;2023-05-07T00:19:11;99131.75;;;21.77;56.56
78573;BME280;67862;0.000;0.000;2023-05-07T00:21:36;99124.38;;;21.78;56.78
78573;BME280;67862;0.000;0.000;2023-05-07T00:24:05;99131.75;;;21.77;56.75
78573;BME280;67862;0.000;0.000;2023-05-07T00:26:30;99132.84;;;21.76;56.94
78573;BME280;67862;0.000;0.000;2023-05-07T00:28:58;99135.59;;;21.76;57.14
78573;BME280;67862;0.000;0.000;2023-05-07T00:31:24;99139.13;;;21.77;57.01
78573;BME280;67862;0.000;0.000;2023-05-07T00:33:49;99139.94;;;21.77;56.95
78573;BME280;67862;0.000;0.000;2023-05-07T00:36:15;99137.50;;;21.76;57.24
78573;BME280;67862;0.000;0.000;2023-05-07T00:38:40;99139.94;;;21.77;56.79
78573;BME280;67862;0.000;0.000;2023-05-07T00:41:05;99140.25;;;21.76;56.62
78573;BME280;67862;0.000;0.000;2023-05-07T00:43:31;99140.25;;;21.76;57.08
78573;BME280;67862;0.000;0.000;2023-05-07T00:46:00;99144.91;;;21.75;56.89
78573;BME280;67862;0.000;0.000;2023-05-07T00:48:26;99142.97;;;21.76;57.19
78573;BME280;67862;0.000;0.000;2023-05-07T00:50:51;99151.16;;;21.76;56.98
78573;BME280;67862;0.000;0.000;2023-05-07T00:53:17;99136.69;;;21.75;57.13
78573;BME280;67862;0.000;0.000;2023-05-07T00:55:42;99142.16;;;21.75;57.03
78573;BME280;67862;0.000;0.000;2023-05-07T00:58:08;99144.91;;;21.75;56.59
78573;BME280;67862;0.000;0.000;2023-05-07T01:00:33;99137.50;;;21.76;56.71
78573;BME280;67862;0.000;0.000;2023-05-07T01:02:59;99134.78;;;21.76;57.36
78573;BME280;67862;0.000;0.000;2023-05-07T01:05:24;99142.16;;;21.75;56.97
78573;BME280;67862;0.000;0.000;2023-05-07T01:07:51;99136.69;;;21.75;56.71
78573;BME280;67862;0.000;0.000;2023-05-07T01:10:17;99144.91;;;21.75;56.59
78573;BME280;67862;0.000;0.000;2023-05-07T01:12:43;99142.97;;;21.76;57.18
78573;BME280;67862;0.000;0.000;2023-05-07T01:15:09;99145.72;;;21.76;57.18
78573;BME280;67862;0.000;0.000;2023-05-07T01:17:35;99142.16;;;21.75;57.15
78573;BME280;67862;0.000;0.000;2023-05-07T01:20:01;99142.16;;;21.75;57.00
78573;BME280;67862;0.000;0.000;2023-05-07T01:22:30;99148.44;;;21.76;56.85
78573;BME280;67862;0.000;0.000;2023-05-07T01:24:57;99150.38;;;21.75;56.79
78573;BME280;67862;0.000;0.000;2023-05-07T01:27:25;99146.00;;;21.74;56.73
78573;BME280;67862;0.000;0.000;2023-05-07T01:29:50;99154.19;;;21.74;57.20
78573;BME280;67862;0.000;0.000;2023-05-07T01:32:15;99146.00;;;21.74;56.93
78573;BME280;67862;0.000;0.000;2023-05-07T01:34:44;99146.00;;;21.74;57.32
78573;BME280;67862;0.000;0.000;2023-05-07T01:37:10;99144.09;;;21.75;56.89
78573;BME280;67862;0.000;0.000;2023-05-07T01:39:37;99140.53;;;21.74;56.48
78573;BME280;67862;0.000;0.000;2023-05-07T01:42:04;99135.06;;;21.74;57.06
78573;BME280;67862;0.000;0.000;2023-05-07T01:44:29;99137.28;;;21.72;56.64
78573;BME280;67862;0.000;0.000;2023-05-07T01:46:55;99135.06;;;21.74;57.06
78573;BME280;67862;0.000;0.000;2023-05-07T01:49:21;99133.16;;;21.75;56.98
78573;BME280;67862;0.000;0.000;2023-05-07T01:51:47;99140.53;;;21.74;56.39
78573;BME280;67862;0.000;0.000;2023-05-07T01:54:13;99143.78;;;21.76;57.10
78573;BME280;67862;0.000;0.000;2023-05-07T01:56:39;99144.91;;;21.75;56.46
78573;BME280;67862;0.000;0.000;2023-05-07T01:59:05;99145.72;;;21.76;56.38
78573;BME280;67862;0.000;0.000;2023-05-07T02:01:30;99140.25;;;21.76;56.27
78573;BME280;67862;0.000;0.000;2023-05-07T02:03:58;99149.25;;;21.76;56.55
78573;BME280;67862;0.000;0.000;2023-05-07T02:06:23;99145.72;;;21.76;56.33
78573;BME280;67862;0.000;0.000;2023-05-07T02:08:49;99135.88;;;21.75;57.01
78573;BME280;67862;0.000;0.000;2023-05-07T02:11:14;99137.81;;;21.74;56.26
78573;BME280;67862;0.000;0.000;2023-05-07T02:13:40;99135.06;;;21.74;56.11
78573;BME280;67862;0.000;0.000;2023-05-07T02:16:05;99138.63;;;21.75;56.49
78573;BME280;67862;0.000;0.000;2023-05-07T02:18:31;99138.91;;;21.73;56.20
78573;BME280;67862;0.000;0.000;2023-05-07T02:20:57;99146.81;;;21.75;56.40
78573;BME280;67862;0.000;0.000;2023-05-07T02:23:22;99138.91;;;21.73;56.48
78573;BME280;67862;0.000;0.000;2023-05-07T02:25:47;99130.44;;;21.75;56.21
78573;BME280;67862;0.000;0.000;2023-05-07T02:28:13;99132.84;;;21.76;56.22
78573;BME280;67862;0.000;0.000;2023-05-07T02:30:41;99126.59;;;21.76;56.08
78573;BME280;67862;0.000;0.000;2023-05-07T02:33:06;99131.25;;;21.75;56.45
78573;BME280;67862;0.000;0.000;2023-05-07T02:35:33;99119.78;;;21.73;56.17
78573;BME280;67862;0.000;0.000;2023-05-07T02:37:59;99122.53;;;21.73;56.10
78573;BME280;67862;0.000;0.000;2023-05-07T02:40:24;99116.25;;;21.73;55.93
78573;BME280;67862;0.000;0.000;2023-05-07T02:42:50;99118.97;;;21.73;56.20
78573;BME280;67862;0.000;0.000;2023-05-07T02:45:15;99104.50;;;21.72;56.00
78573;BME280;67862;0.000;0.000;2023-05-07T02:47:40;99114.63;;;21.71;56.24
78573;BME280;67862;0.000;0.000;2023-05-07T02:50:06;99114.63;;;21.71;56.14
78573;BME280;67862;0.000;0.000;2023-05-07T02:52:31;99116.53;;;21.71;55.97
78573;BME280;67862;0.000;0.000;2023-05-07T02:54:57;99122.81;;;21.71;56.22
78573;BME280;67862;0.000;0.000;2023-05-07T02:57:22;99128.28;;;21.71;56.07
78573;BME280;67862;0.000;0.000;2023-05-07T02:59:47;99132.91;;;21.71;55.86
78573;BME280;67862;0.000;0.000;2023-05-07T03:02:13;99141.94;;;21.71;56.03
78573;BME280;67862;0.000;0.000;2023-05-07T03:04:39;99135.66;;;21.71;55.94
78573;BME280;67862;0.000;0.000;2023-05-07T03:07:04;99134.03;;;21.70;56.31
78573;BME280;67862;0.000;0.000;2023-05-07T03:09:30;99136.75;;;21.70;55.89
78573;BME280;67862;0.000;0.000;2023-05-07T03:11:56;99141.09;;;21.71;56.08
78573;BME280;67862;0.000;0.000;2023-05-07T03:14:21;99135.94;;;21.69;55.96
78573;BME280;67862;0.000;0.000;2023-05-07T03:16:46;99142.22;;;21.70;56.44
78573;BME280;67862;0.000;0.000;2023-05-07T03:19:12;99127.75;;;21.69;56.19
78573;BME280;67862;0.000;0.000;2023-05-07T03:21:37;99139.47;;;21.70;56.21
78573;BME280;67862;0.000;0.000;2023-05-07T03:24:02;99139.47;;;21.70;56.12
78573;BME280;67862;0.000;0.000;2023-05-07T03:26:28;99132.41;;;21.69;55.90
78573;BME280;67862;0.000;0.000;2023-05-07T03:28:53;99136.25;;;21.68;55.79
78573;BME280;67862;0.000;0.000;2023-05-07T03:31:18;99131.59;;;21.68;56.03
78573;BME280;67862;0.000;0.000;2023-05-07T03:33:52;99130.78;;;21.68;55.86
78573;BME280;67862;0.000;0.000;2023-05-07T03:36:18;99139.78;;;21.68;55.79
78573;BME280;67862;0.000;0.000;2023-05-07T03:38:46;99136.25;;;21.68;56.19
78573;BME280;67862;0.000;0.000;2023-05-07T03:41:12;99137.06;;;21.68;55.90
78573;BME280;67862;0.000;0.000;2023-05-07T03:43:37;99127.53;;;21.66;55.98
78573;BME280;67862;0.000;0.000;2023-05-07T03:46:02;99128.03;;;21.68;56.23
78573;BME280;67862;0.000;0.000;2023-05-07T03:48:28;99136.25;;;21.68;55.94
78573;BME280;67862;0.000;0.000;2023-05-07T03:50:53;99136.25;;;21.68;56.26
78573;BME280;67862;0.000;0.000;2023-05-07T03:53:19;99136.53;;;21.66;56.02
78573;BME280;67862;0.000;0.000;2023-05-07T03:55:44;99137.34;;;21.67;56.06
78573;BME280;67862;0.000;0.000;2023-05-07T03:58:12;99134.63;;;21.67;56.05
78573;BME280;67862;0.000;0.000;2023-05-07T04:00:37;99135.72;;;21.66;55.72
78573;BME280;67862;0.000;0.000;2023-05-07T04:03:05;99140.91;;;21.67;56.07
78573;BME280;67862;0.000;0.000;2023-05-07T04:05:30;99132.19;;;21.65;56.05
78573;BME280;67862;0.000;0.000;2023-05-07T04:07:57;99138.47;;;21.66;56.12
78573;BME280;67862;0.000;0.000;2023-05-07T04:10:22;99143.09;;;21.65;55.97
78573;BME280;67862;0.000;0.000;2023-05-07T04:12:48;99139.56;;;21.65;55.96
78573;BME280;67862;0.000;0.000;2023-05-07T04:15:13;99137.66;;;21.65;55.77
78573;BME280;67862;0.000;0.000;2023-05-07T04:17:39;99142.31;;;21.65;55.95
78573;BME280;67862;0.000;0.000;2023-05-07T04:20:05;99141.19;;;21.66;56.08
78573;BME280;67862;0.000;0.000;2023-05-07T04:22:32;99146.66;;;21.66;55.88
78573;BME280;67862;0.000;0.000;2023-05-07T04:24:57;99150.19;;;21.66;55.97
78573;BME280;67862;0.000;0.000;2023-05-07T04:27:23;99146.34;;;21.67;56.09
78573;BME280;67862;0.000;0.000;2023-05-07T04:29:48;99155.66;;;21.66;56.19
78573;BME280;67862;0.000;0.000;2023-05-07T04:32:13;99150.19;;;21.66;56.18
78573;BME280;67862;0.000;0.000;2023-05-07T04:34:39;99160.00;;;21.67;56.25
78573;BME280;67862;0.000;0.000;2023-05-07T04:37:04;99156.47;;;21.67;55.82
78573;BME280;67862;0.000;0.000;2023-05-07T04:39:30;99167.41;;;21.67;56.22
78573;BME280;67862;0.000;0.000;2023-05-07T04:41:55;99161.94;;;21.67;55.84
78573;BME280;67862;0.000;0.000;2023-05-07T04:44:21;99173.69;;;21.67;55.90
78573;BME280;67862;0.000;0.000;2023-05-07T04:46:52;99177.22;;;21.68;56.35
78573;BME280;67862;0.000;0.000;2023-05-07T04:49:21;99180.25;;;21.66;56.07
78573;BME280;67862;0.000;0.000;2023-05-07T04:51:48;99172.06;;;21.66;56.34
78573;BME280;67862;0.000;0.000;2023-05-07T04:54:13;99177.50;;;21.66;56.28
78573;BME280;67862;0.000;0.000;2023-05-07T04:56:45;99173.69;;;21.67;56.05
78573;BME280;67862;0.000;0.000;2023-05-07T04:59:16;99171.25;;;21.66;56.43
78573;BME280;67862;0.000;0.000;2023-05-07T05:01:44;99167.41;;;21.67;56.29
78573;BME280;67862;0.000;0.000;2023-05-07T05:04:10;99173.69;;;21.67;56.34
78573;BME280;67862;0.000;0.000;2023-05-07T05:06:35;99175.59;;;21.67;56.33
78573;BME280;67862;0.000;0.000;2023-05-07T05:09:07;99176.72;;;21.66;56.40
78573;BME280;67862;0.000;0.000;2023-05-07T05:11:32;99172.88;;;21.67;56.47
78573;BME280;67862;0.000;0.000;2023-05-07T05:14:18;99176.72;;;21.66;56.57
78573;BME280;67862;0.000;0.000;2023-05-07T05:16:46;99173.69;;;21.67;56.25
78573;BME280;67862;0.000;0.000;2023-05-07T05:19:11;99179.94;;;21.68;56.45
78573;BME280;67862;0.000;0.000;2023-05-07T05:21:37;99170.13;;;21.67;56.08
78573;BME280;67862;0.000;0.000;2023-05-07T05:24:02;99178.31;;;21.67;56.42
78573;BME280;67862;0.000;0.000;2023-05-07T05:26:28;99178.31;;;21.67;56.35
78573;BME280;67862;0.000;0.000;2023-05-07T05:28:54;99184.91;;;21.66;56.15
78573;BME280;67862;0.000;0.000;2023-05-07T05:31:19;99186.53;;;21.67;56.29
78573;BME280;67862;0.000;0.000;2023-05-07T05:33:47;99176.72;;;21.66;56.48
78573;BME280;67862;0.000;0.000;2023-05-07T05:36:12;99178.31;;;21.67;56.48
78573;BME280;67862;0.000;0.000;2023-05-07T05:38:38;99184.91;;;21.66;56.18
78573;BME280;67862;0.000;0.000;2023-05-07T05:41:10;99179.44;;;21.66;56.49
78573;BME280;67862;0.000;0.000;2023-05-07T05:43:41;99182.16;;;21.66;56.28
78573;BME280;67862;0.000;0.000;2023-05-07T05:46:07;99177.50;;;21.66;56.57
78573;BME280;67862;0.000;0.000;2023-05-07T05:48:33;99173.97;;;21.66;56.43
78573;BME280;67862;0.000;0.000;2023-05-07T05:50:59;99182.16;;;21.66;56.64
78573;BME280;67862;0.000;0.000;2023-05-07T05:53:25;99184.91;;;21.66;56.61
78573;BME280;67862;0.000;0.000;2023-05-07T05:56:08;99177.50;;;21.66;56.33
78573;BME280;67862;0.000;0.000;2023-05-07T05:58:53;99181.06;;;21.67;56.57
78573;BME280;67862;0.000;0.000;2023-05-07T06:01:31;99176.72;;;21.66;56.47
78573;BME280;67862;0.000;0.000;2023-05-07T06:04:12;99178.31;;;21.67;56.67
78573;BME280;67862;0.000;0.000;2023-05-07T06:06:38;99182.16;;;21.66;56.77
78573;BME280;67862;0.000;0.000;2023-05-07T06:09:13;99186.53;;;21.67;56.96
78573;BME280;67862;0.000;0.000;2023-05-07T06:11:48;99186.53;;;21.67;57.01
78573;BME280;67862;0.000;0.000;2023-05-07T06:14:14;99186.53;;;21.67;57.15
78573;BME280;67862;0.000;0.000;2023-05-07T06:16:42;99178.31;;;21.67;56.77
78573;BME280;67862;0.000;0.000;2023-05-07T06:19:08;99187.34;;;21.67;56.84
78573;BME280;67862;0.000;0.000;2023-05-07T06:21:33;99184.59;;;21.67;57.09
78573;BME280;67862;0.000;0.000;2023-05-07T06:24:04;99178.31;;;21.67;57.03
78573;BME280;67862;0.000;0.000;2023-05-07T06:26:30;99178.31;;;21.67;57.04
78573;BME280;67862;0.000;0.000;2023-05-07T06:29:01;99179.44;;;21.66;57.01
78573;BME280;67862;0.000;0.000;2023-05-07T06:31:29;99175.59;;;21.67;56.90
78573;BME280;67862;0.000;0.000;2023-05-07T06:33:54;99172.88;;;21.67;56.80
78573;BME280;67862;0.000;0.000;2023-05-07T06:36:20;99172.88;;;21.67;57.13
78573;BME280;67862;0.000;0.000;2023-05-07T06:38:46;99166.28;;;21.68;57.02
78573;BME280;67862;0.000;0.000;2023-05-07T06:41:11;99169.31;;;21.66;56.99
78573;BME280;67862;0.000;0.000;2023-05-07T06:43:39;99176.41;;;21.67;57.07
78573;BME280;67862;0.000;0.000;2023-05-07T06:46:04;99181.06;;;21.67;57.17
78573;BME280;67862;0.000;0.000;2023-05-07T06:48:33;99177.50;;;21.66;57.01
78573;BME280;67862;0.000;0.000;2023-05-07T06:51:01;99180.25;;;21.66;56.99
78573;BME280;67862;0.000;0.000;2023-05-07T06:53:26;99177.50;;;21.66;57.37
78573;BME280;67862;0.000;0.000;2023-05-07T06:55:53;99183.19;;;21.70;57.12
78573;BME280;67862;0.000;0.000;2023-05-07T06:58:19;99185.94;;;21.70;57.17
78573;BME280;67862;0.000;0.000;2023-05-07T07:00:44;99181.56;;;21.69;56.88
78573;BME280;67862;0.000;0.000;2023-05-07T07:03:10;99174.50;;;21.68;57.05
78573;BME280;67862;0.000;0.000;2023-05-07T07:05:36;99182.69;;;21.68;56.80
78573;BME280;67862;0.000;0.000;2023-05-07T07:08:01;99177.22;;;21.68;57.23
78573;BME280;67862;0.000;0.000;2023-05-07T07:10:30;99179.94;;;21.68;56.92
78573;BME280;67862;0.000;0.000;2023-05-07T07:12:55;99184.59;;;21.67;57.05
78573;BME280;67862;0.000;0.000;2023-05-07T07:15:23;99177.22;;;21.68;57.25
78573;BME280;67862;0.000;0.000;2023-05-07T07:17:50;99185.41;;;21.68;57.17
78573;BME280;67862;0.000;0.000;2023-05-07T07:20:15;99183.66;;;21.77;57.68
78573;BME280;67862;0.000;0.000;2023-05-07T07:22:41;99186.00;;;21.65;55.28
78573;BME280;67862;0.000;0.000;2023-05-07T07:25:06;99185.53;;;21.58;55.74
78573;BME280;67862;0.000;0.000;2023-05-07T07:27:32;99188.88;;;21.55;56.23
78573;BME280;67862;0.000;0.000;2023-05-07T07:29:57;99185.31;;;21.54;56.27
78573;BME280;67862;0.000;0.000;2023-05-07T07:32:22;99191.81;;;21.58;56.31
78573;BME280;67862;0.000;0.000;2023-05-07T07:34:48;99188.78;;;21.60;56.89
78573;BME280;67862;0.000;0.000;2023-05-07T07:37:16;99199.41;;;21.61;56.68
78573;BME280;67862;0.000;0.000;2023-05-07T07:39:45;99200.25;;;21.62;55.87
78573;BME280;67862;0.000;0.000;2023-05-07T07:42:11;99196.47;;;21.58;55.56
78573;BME280;67862;0.000;0.000;2023-05-07T07:44:37;99196.97;;;21.60;55.86
78573;BME280;67862;0.000;0.000;2023-05-07T07:47:04;99191.47;;;21.65;56.42
78573;BME280;67862;0.000;0.000;2023-05-07T07:49:32;99199.06;;;21.68;55.95
78573;BME280;67862;0.000;0.000;2023-05-07T07:51:58;99202.41;;;21.65;56.06
78573;BME280;67862;0.000;0.000;2023-05-07T07:54:27;99199.97;;;21.63;55.84
78573;BME280;67862;0.000;0.000;2023-05-07T07:57:01;99189.34;;;21.62;56.17
78573;BME280;67862;0.000;0.000;2023-05-07T07:59:43;99198.84;;;21.64;56.10
78573;BME280;67862;0.000;0.000;2023-05-07T08:02:09;99194.50;;;21.63;54.76
78573;BME280;67862;0.000;0.000;2023-05-07T08:04:35;99205.13;;;21.65;55.50
78573;BME280;67862;0.000;0.000;2023-05-07T08:07:05;99204.03;;;21.66;56.40
78573;BME280;67862;0.000;0.000;2023-05-07T08:09:30;99214.66;;;21.67;55.52
78573;BME280;67862;0.000;0.000;2023-05-07T08:11:56;99211.09;;;21.67;55.01
78573;BME280;67862;0.000;0.000;2023-05-07T08:14:21;99205.88;;;21.70;56.10
78573;BME280;67862;0.000;0.000;2023-05-07T08:16:50;99214.88;;;21.71;56.33
78573;BME280;67862;0.000;0.000;2023-05-07T08:19:15;99215.16;;;21.69;55.91
78573;BME280;67862;0.000;0.000;2023-05-07T08:21:40;99206.47;;;21.67;53.92
78573;BME280;67862;0.000;0.000;2023-05-07T08:24:06;99211.94;;;21.67;55.36
78573;BME280;67862;0.000;0.000;2023-05-07T08:26:34;99209.66;;;21.75;55.28
78573;BME280;67862;0.000;0.000;2023-05-07T08:29:12;99212.41;;;21.75;55.46
78573;BME280;67862;0.000;0.000;2023-05-07T08:31:37;99209.97;;;21.73;55.73
78573;BME280;67862;0.000;0.000;2023-05-07T08:34:04;99214.88;;;21.71;55.37
78573;BME280;67862;0.000;0.000;2023-05-07T08:36:30;99204.25;;;21.69;54.96
78573;BME280;67862;0.000;0.000;2023-05-07T08:38:56;99209.72;;;21.69;55.48
78573;BME280;67862;0.000;0.000;2023-05-07T08:41:30;99213.25;;;21.70;55.80
78573;BME280;67862;0.000;0.000;2023-05-07T08:43:57;99204.78;;;21.71;55.63
78573;BME280;67862;0.000;0.000;2023-05-07T08:46:25;99202.31;;;21.70;55.65
78573;BME280;67862;0.000;0.000;2023-05-07T08:48:56;99202.91;;;21.67;55.18
78573;BME280;67862;0.000;0.000;2023-05-07T08:51:21;99205.13;;;21.65;55.10
78573;BME280;67862;0.000;0.000;2023-05-07T08:53:47;99205.44;;;21.63;54.75
78573;BME280;67862;0.000;0.000;2023-05-07T08:56:13;99192.63;;;21.59;54.68
78573;BME280;67862;0.000;0.000;2023-05-07T08:58:40;99200.31;;;21.57;54.40
78573;BME280;67862;0.000;0.000;2023-05-07T09:01:09;99201.63;;;21.59;54.04
78573;BME280;67862;0.000;0.000;2023-05-07T09:03:37;99195.34;;;21.59;54.51
78573;BME280;67862;0.000;0.000;2023-05-07T09:06:06;99201.94;;;21.58;53.36
78573;BME280;67862;0.000;0.000;2023-05-07T09:08:33;99201.34;;;21.61;54.41
78573;BME280;67862;0.000;0.000;2023-05-07T09:10:59;99206.25;;;21.64;54.35
78573;BME280;67862;0.000;0.000;2023-05-07T09:13:25;99206.25;;;21.64;55.15
78573;BME280;67862;0.000;0.000;2023-05-07T09:15:50;99209.72;;;21.69;54.52
78573;BME280;67862;0.000;0.000;2023-05-07T09:18:16;99204.03;;;21.66;54.70
78573;BME280;67862;0.000;0.000;2023-05-07T09:20:41;99198.84;;;21.64;54.04
78573;BME280;67862;0.000;0.000;2023-05-07T09:23:07;99205.13;;;21.65;54.27
78573;BME280;67862;0.000;0.000;2023-05-07T09:25:33;99211.63;;;21.69;54.57
78573;BME280;67862;0.000;0.000;2023-05-07T09:27:59;99201.50;;;21.69;53.92
78573;BME280;67862;0.000;0.000;2023-05-07T09:30:31;99205.06;;;21.70;53.02
78573;BME280;67862;0.000;0.000;2023-05-07T09:32:57;99208.34;;;21.72;53.05
78573;BME280;67862;0.000;0.000;2023-05-07T09:35:24;99200.31;;;21.57;51.73
78573;BME280;67862;0.000;0.000;2023-05-07T09:37:52;99206.06;;;21.55;52.21
78573;BME280;67862;0.000;0.000;2023-05-07T09:40:22;99203.06;;;21.52;51.84
78573;BME280;67862;0.000;0.000;2023-05-07T09:42:48;99203.38;;;21.50;50.75
78573;BME280;67862;0.000;0.000;2023-05-07T09:45:16;99200.66;;;21.50;51.55
78573;BME280;67862;0.000;0.000;2023-05-07T09:47:42;99199.91;;;21.45;50.51
78573;BME280;67862;0.000;0.000;2023-05-07T09:50:10;99197.97;;;21.45;51.05
78573;BME280;67862;0.000;0.000;2023-05-07T09:52:38;99197.16;;;21.45;50.31
78573;BME280;67862;0.000;0.000;2023-05-07T09:55:04;99194.44;;;21.45;50.42
78573;BME280;67862;0.000;0.000;2023-05-07T09:57:35;99195.56;;;21.43;49.22
78573;BME280;67862;0.000;0.000;2023-05-07T10:00:04;99193.34;;;21.46;49.96
78573;BME280;67862;0.000;0.000;2023-05-07T10:02:36;99196.59;;;21.48;49.10
78573;BME280;67862;0.000;0.000;2023-05-07T10:05:04;99196.38;;;21.44;48.92
78573;BME280;67862;0.000;0.000;2023-05-07T10:07:33;99204.06;;;21.37;48.29
78573;BME280;67862;0.000;0.000;2023-05-07T10:09:59;99197.72;;;21.41;48.89
78573;BME280;67862;0.000;0.000;2023-05-07T10:12:27;99199.84;;;21.50;48.56
78573;BME280;67862;0.000;0.000;2023-05-07T10:14:52;99188.91;;;21.50;48.56
78573;BME280;67862;0.000;0.000;2023-05-07T10:17:19;99192.16;;;21.52;49.10
78573;BME280;67862;0.000;0.000;2023-05-07T10:19:45;99197.88;;;21.55;49.15
78573;BME280;67862;0.000;0.000;2023-05-07T10:22:11;99187.53;;;21.52;48.25
78573;BME280;67862;0.000;0.000;2023-05-07T10:24:41;99189.53;;;21.41;48.42
78573;BME280;67862;0.000;0.000;2023-05-07T10:27:21;99185.25;;;21.35;48.15
78573;BME280;67862;0.000;0.000;2023-05-07T10:35:02;99197.03;;;21.31;47.71
78573;BME280;67862;0.000;0.000;2023-05-07T10:37:30;99198.16;;;21.25;47.12
78573;BME280;67862;0.000;0.000;2023-05-07T10:39:55;99197.09;;;21.21;48.13
78573;BME280;67862;0.000;0.000;2023-05-07T10:42:22;99191.41;;;21.17;47.44
78573;BME280;67862;0.000;0.000;2023-05-07T10:44:48;99206.19;;;21.16;47.95
78573;BME280;67862;0.000;0.000;2023-05-07T10:47:16;99199.94;;;21.10;47.83
78573;BME280;67862;0.000;0.000;2023-05-07T10:52:13;99199.94;;;21.10;47.60
78573;BME280;67862;0.000;0.000;2023-05-07T10:54:39;99200.81;;;21.06;47.67
78573;BME280;67862;0.000;0.000;2023-05-07T10:59:52;99206.78;;;21.08;48.22
78573;BME280;67862;0.000;0.000;2023-05-07T11:02:18;99203.78;;;21.09;48.08
78573;BME280;67862;0.000;0.000;2023-05-07T11:04:44;99199.38;;;21.13;48.19
78573;BME280;67862;0.000;0.000;2023-05-07T11:15:04;99205.81;;;21.23;47.73
78573;BME280;67862;0.000;0.000;2023-05-07T11:17:29;99205.28;;;21.21;47.42
78573;BME280;67862;0.000;0.000;2023-05-07T11:19:57;99203.97;;;21.18;47.61
78573;BME280;67862;0.000;0.000;2023-05-07T11:25:04;99205.09;;;21.12;46.58
78573;BME280;67862;0.000;0.000;2023-05-07T11:27:30;99204.59;;;21.10;46.63
78573;BME280;67862;0.000;0.000;2023-05-07T11:29:56;99207.22;;;21.20;47.45
78573;BME280;67862;0.000;0.000;2023-05-07T11:32:25;99204.19;;;21.22;47.51
78573;BME280;67862;0.000;0.000;2023-05-07T11:34:55;99206.09;;;21.26;47.98
78573;BME280;67862;0.000;0.000;2023-05-07T11:37:21;99200.88;;;21.30;48.36
78573;BME280;67862;0.000;0.000;2023-05-07T11:39:46;99200.88;;;21.30;48.62
78573;BME280;67862;0.000;0.000;2023-05-07T11:44:56;99198.66;;;21.32;49.03
78573;BME280;67862;0.000;0.000;2023-05-07T11:47:21;99203.84;;;21.33;49.27
78573;BME280;67862;0.000;0.000;2023-05-07T11:49:56;99207.91;;;21.36;49.65
78573;BME280;67862;0.000;0.000;2023-05-07T11:52:22;99199.72;;;21.36;49.98
78573;BME280;67862;0.000;0.000;2023-05-07T11:54:54;99200.53;;;21.36;49.77
78573;BME280;67862;0.000;0.000;2023-05-07T11:57:29;99197.72;;;21.41;50.02
78573;BME280;67862;0.000;0.000;2023-05-07T11:59:55;99195.47;;;21.49;50.29
78573;BME280;67862;0.000;0.000;2023-05-07T12:02:21;99195.34;;;21.59;50.41
78573;BME280;67862;0.000;0.000;2023-05-07T12:04:46;99189.69;;;21.55;50.37
78573;BME280;67862;0.000;0.000;2023-05-07T12:07:12;99185.66;;;21.48;50.13
78573;BME280;67862;0.000;0.000;2023-05-07T12:09:38;99190.59;;;21.46;50.25
78573;BME280;67862;0.000;0.000;2023-05-07T12:12:06;99191.72;;;21.45;50.26
78573;BME280;67862;0.000;0.000;2023-05-07T12:14:31;99187.06;;;21.45;50.63
78573;BME280;67862;0.000;0.000;2023-05-07T12:17:00;99191.72;;;21.45;50.32
78573;BME280;67862;0.000;0.000;2023-05-07T12:19:28;99190.91;;;21.44;50.50
78573;BME280;67862;0.000;0.000;2023-05-07T12:21:54;99181.91;;;21.43;50.69
78573;BME280;67862;0.000;0.000;2023-05-07T12:24:19;99190.91;;;21.44;50.79
78573;BME280;67862;0.000;0.000;2023-05-07T12:26:46;99185.44;;;21.44;50.70
78573;BME280;67862;0.000;0.000;2023-05-07T12:29:11;99190.09;;;21.43;50.43
78573;BME280;67862;0.000;0.000;2023-05-07T12:31:40;99192.81;;;21.43;50.40
78573;BME280;67862;0.000;0.000;2023-05-07T12:34:06;99193.94;;;21.42;50.66
78573;BME280;67862;0.000;0.000;2023-05-07T12:36:37;99191.19;;;21.42;50.76
78573;BME280;67862;0.000;0.000;2023-05-07T12:39:04;99207.56;;;21.42;50.56
78573;BME280;67862;0.000;0.000;2023-05-07T12:41:29;99192.28;;;21.41;50.76
78573;BME280;67862;0.000;0.000;2023-05-07T12:43:56;99207.84;;;21.41;50.43
78573;BME280;67862;0.000;0.000;2023-05-07T12:46:21;99211.38;;;21.41;51.00
78573;BME280;67862;0.000;0.000;2023-05-07T12:48:48;99207.56;;;21.42;50.81
78573;BME280;67862;0.000;0.000;2023-05-07T12:51:13;99200.25;;;21.38;52.06
78573;BME280;67862;0.000;0.000;2023-05-07T12:53:40;99199.72;;;21.36;52.15
78573;BME280;67862;0.000;0.000;2023-05-07T12:56:09;99187.47;;;21.33;52.96
78573;BME280;67862;0.000;0.000;2023-05-07T12:58:35;99187.47;;;21.33;53.18
78573;BME280;67862;0.000;0.000;2023-05-07T13:01:07;99190.66;;;21.40;52.19
78573;BME280;67862;0.000;0.000;2023-05-07T13:03:36;99177.75;;;21.46;51.79
78573;BME280;67862;0.000;0.000;2023-05-07T13:06:05;99184.81;;;21.52;51.15
78573;BME280;67862;0.000;0.000;2023-05-07T13:08:31;99186.34;;;21.58;51.59
78573;BME280;67862;0.000;0.000;2023-05-07T13:10:58;99178.66;;;21.60;51.56
78573;BME280;67862;0.000;0.000;2023-05-07T13:13:24;99181.41;;;21.60;51.56
78573;BME280;67862;0.000;0.000;2023-05-07T13:15:53;99176.25;;;21.59;51.58
78573;BME280;67862;0.000;0.000;2023-05-07T13:18:18;99172.41;;;21.60;51.94
78573;BME280;67862;0.000;0.000;2023-05-07T13:20:44;99165.56;;;21.62;51.42
78573;BME280;67862;0.000;0.000;2023-05-07T13:23:10;99158.09;;;21.68;51.44
78573;BME280;67862;0.000;0.000;2023-05-07T13:25:35;99166.00;;;21.69;51.37
78573;BME280;67862;0.000;0.000;2023-05-07T13:28:00;99156.78;;;21.65;51.78
78573;BME280;67862;0.000;0.000;2023-05-07T13:30:26;99147.75;;;21.65;51.56
78573;BME280;67862;0.000;0.000;2023-05-07T13:32:53;99146.66;;;21.66;51.69